sensor_id;sensor_type;location;lat;lon;timestamp;P1;durP1;ratioP1;P2;durP2;ratioP2
37847;SDS011;23688;33.130;-117.188;2023-03-17T00:01:07;13.38;;;3.28;;
37847;SDS011;23688;33.130;-117.188;2023-03-17T00:03:38;10.07;;;4.28;;
37847;SDS011;23688;33.130;-117.188;2023-03-17T00:06:08;17.52;;;4.18;;
37847;SDS011;23688;33.130;-117.188;2023-03-17T00:08:49;14.82;;;3.90;;
37847;SDS011;23688;33.130;-117.188;2023-03-17T00:11:16;10.73;;;3.60;;
37847;SDS011;23688;33.130;-117.188;2023-03-17T00:13:43;15.32;;;4.70;;
37847;SDS011;23688;33.130;-117.188;2023-03-17T00:16:15;14.23;;;3.78;;
37847;SDS011;23688;33.130;-117.188;2023-03-17T00:18:43;17.40;;;4.68;;
37847;SDS011;23688;33.130;-117.188;2023-03-17T00:21:13;17.67;;;4.22;;
37847;SDS011;23688;33.130;-117.188;2023-03-17T00:23:48;14.87;;;4.17;;
37847;SDS011;23688;33.130;-117.188;2023-03-17T00:26:16;10.75;;;3.22;;
37847;SDS011;23688;33.130;-117.188;2023-03-17T00:28:44;12.27;;;2.70;;
37847;SDS011;23688;33.130;-117.188;2023-03-17T00:31:18;15.05;;;3.47;;
37847;SDS011;23688;33.130;-117.188;2023-03-17T00:33:54;14.63;;;3.60;;
37847;SDS011;23688;33.130;-117.188;2023-03-17T00:36:22;12.23;;;3.85;;
37847;SDS011;23688;33.130;-117.188;2023-03-17T00:38:52;11.57;;;3.35;;
37847;SDS011;23688;33.130;-117.188;2023-03-17T00:41:19;17.73;;;3.85;;
37847;SDS011;23688;33.130;-117.188;2023-03-17T00:43:45;12.60;;;3.58;;
37847;SDS011;23688;33.130;-117.188;2023-03-17T00:46:12;14.32;;;3.95;;
37847;SDS011;23688;33.130;-117.188;2023-03-17T00:48:39;19.10;;;3.90;;
37847;SDS011;23688;33.130;-117.188;2023-03-17T00:51:07;13.38;;;3.63;;
37847;SDS011;23688;33.130;-117.188;2023-03-17T00:53:34;11.60;;;4.03;;
37847;SDS011;23688;33.130;-117.188;2023-03-17T00:56:00;19.92;;;3.88;;
37847;SDS011;23688;33.130;-117.188;2023-03-17T00:58:28;18.00;;;4.35;;
37847;SDS011;23688;33.130;-117.188;2023-03-17T01:00:57;17.45;;;4.10;;
37847;SDS011;23688;33.130;-117.188;2023-03-17T01:03:24;15.50;;;4.18;;
37847;SDS011;23688;33.130;-117.188;2023-03-17T01:08:21;16.23;;;4.43;;
37847;SDS011;23688;33.130;-117.188;2023-03-17T01:10:48;14.32;;;4.95;;
37847;SDS011;23688;33.130;-117.188;2023-03-17T01:13:15;20.20;;;5.10;;
37847;SDS011;23688;33.130;-117.188;2023-03-17T01:15:42;21.77;;;4.53;;
37847;SDS011;23688;33.130;-117.188;2023-03-17T01:18:12;21.15;;;4.18;;
37847;SDS011;23688;33.130;-117.188;2023-03-17T01:20:40;18.88;;;5.25;;
37847;SDS011;23688;33.130;-117.188;2023-03-17T01:23:07;23.15;;;5.15;;
37847;SDS011;23688;33.130;-117.188;2023-03-17T01:25:35;18.67;;;4.28;;
37847;SDS011;23688;33.130;-117.188;2023-03-17T01:28:03;13.98;;;5.07;;
37847;SDS011;23688;33.130;-117.188;2023-03-17T01:30:31;16.48;;;4.68;;
37847;SDS011;23688;33.130;-117.188;2023-03-17T01:32:59;22.35;;;4.20;;
37847;SDS011;23688;33.130;-117.188;2023-03-17T01:35:26;24.08;;;5.75;;
37847;SDS011;23688;33.130;-117.188;2023-03-17T01:37:54;18.50;;;4.93;;
37847;SDS011;23688;33.130;-117.188;2023-03-17T01:48:23;25.63;;;6.70;;
37847;SDS011;23688;33.130;-117.188;2023-03-17T01:50:53;17.75;;;5.65;;
37847;SDS011;23688;33.130;-117.188;2023-03-17T01:53:24;17.38;;;4.78;;
37847;SDS011;23688;33.130;-117.188;2023-03-17T01:55:52;22.25;;;5.13;;
37847;SDS011;23688;33.130;-117.188;2023-03-17T01:58:21;20.52;;;5.00;;
37847;SDS011;23688;33.130;-117.188;2023-03-17T02:00:49;18.60;;;5.22;;
37847;SDS011;23688;33.130;-117.188;2023-03-17T02:03:16;21.45;;;5.00;;
37847;SDS011;23688;33.130;-117.188;2023-03-17T02:05:43;17.70;;;4.80;;
37847;SDS011;23688;33.130;-117.188;2023-03-17T02:08:13;23.33;;;5.50;;
37847;SDS011;23688;33.130;-117.188;2023-03-17T02:10:40;22.85;;;5.03;;
37847;SDS011;23688;33.130;-117.188;2023-03-17T02:13:09;20.23;;;5.45;;
37847;SDS011;23688;33.130;-117.188;2023-03-17T02:15:38;16.02;;;5.15;;
37847;SDS011;23688;33.130;-117.188;2023-03-17T02:18:07;21.55;;;4.75;;
37847;SDS011;23688;33.130;-117.188;2023-03-17T02:23:00;24.83;;;6.15;;
37847;SDS011;23688;33.130;-117.188;2023-03-17T02:25:28;21.00;;;6.30;;
37847;SDS011;23688;33.130;-117.188;2023-03-17T02:27:56;19.27;;;5.82;;
37847;SDS011;23688;33.130;-117.188;2023-03-17T02:30:26;27.75;;;6.53;;
37847;SDS011;23688;33.130;-117.188;2023-03-17T02:32:53;18.65;;;6.95;;
37847;SDS011;23688;33.130;-117.188;2023-03-17T02:35:19;31.75;;;8.02;;
37847;SDS011;23688;33.130;-117.188;2023-03-17T02:37:46;28.77;;;8.52;;
37847;SDS011;23688;33.130;-117.188;2023-03-17T02:40:13;26.05;;;7.97;;
37847;SDS011;23688;33.130;-117.188;2023-03-17T02:42:42;23.83;;;7.30;;
37847;SDS011;23688;33.130;-117.188;2023-03-17T02:45:09;24.55;;;6.45;;
37847;SDS011;23688;33.130;-117.188;2023-03-17T02:47:36;24.52;;;8.65;;
37847;SDS011;23688;33.130;-117.188;2023-03-17T02:50:03;20.58;;;7.30;;
37847;SDS011;23688;33.130;-117.188;2023-03-17T02:52:30;43.85;;;16.92;;
37847;SDS011;23688;33.130;-117.188;2023-03-17T02:54:56;26.35;;;7.55;;
37847;SDS011;23688;33.130;-117.188;2023-03-17T02:57:23;18.77;;;6.20;;
37847;SDS011;23688;33.130;-117.188;2023-03-17T02:59:49;29.17;;;6.40;;
37847;SDS011;23688;33.130;-117.188;2023-03-17T03:02:16;24.98;;;6.72;;
37847;SDS011;23688;33.130;-117.188;2023-03-17T03:04:42;30.27;;;9.32;;
37847;SDS011;23688;33.130;-117.188;2023-03-17T03:07:10;24.67;;;6.93;;
37847;SDS011;23688;33.130;-117.188;2023-03-17T03:09:36;27.20;;;7.32;;
37847;SDS011;23688;33.130;-117.188;2023-03-17T03:12:03;23.77;;;6.90;;
37847;SDS011;23688;33.130;-117.188;2023-03-17T03:14:30;23.40;;;8.25;;
37847;SDS011;23688;33.130;-117.188;2023-03-17T03:16:57;28.13;;;9.38;;
37847;SDS011;23688;33.130;-117.188;2023-03-17T03:19:23;17.48;;;7.43;;
37847;SDS011;23688;33.130;-117.188;2023-03-17T03:21:50;18.25;;;6.20;;
37847;SDS011;23688;33.130;-117.188;2023-03-17T03:24:16;24.20;;;5.60;;
37847;SDS011;23688;33.130;-117.188;2023-03-17T03:26:42;28.50;;;6.55;;
37847;SDS011;23688;33.130;-117.188;2023-03-17T03:29:08;19.73;;;5.93;;
37847;SDS011;23688;33.130;-117.188;2023-03-17T03:31:35;28.25;;;6.07;;
37847;SDS011;23688;33.130;-117.188;2023-03-17T03:34:01;24.55;;;6.82;;
37847;SDS011;23688;33.130;-117.188;2023-03-17T03:36:30;22.40;;;6.70;;
37847;SDS011;23688;33.130;-117.188;2023-03-17T03:38:57;24.92;;;7.70;;
37847;SDS011;23688;33.130;-117.188;2023-03-17T03:41:25;21.80;;;6.03;;
37847;SDS011;23688;33.130;-117.188;2023-03-17T03:43:51;30.55;;;6.47;;
37847;SDS011;23688;33.130;-117.188;2023-03-17T03:46:18;28.58;;;8.00;;
37847;SDS011;23688;33.130;-117.188;2023-03-17T03:48:44;24.88;;;6.50;;
37847;SDS011;23688;33.130;-117.188;2023-03-17T03:51:11;18.73;;;6.45;;
37847;SDS011;23688;33.130;-117.188;2023-03-17T03:53:38;28.73;;;6.70;;
37847;SDS011;23688;33.130;-117.188;2023-03-17T03:56:04;22.58;;;7.40;;
37847;SDS011;23688;33.130;-117.188;2023-03-17T03:58:31;26.20;;;7.25;;
37847;SDS011;23688;33.130;-117.188;2023-03-17T04:00:57;23.23;;;6.18;;
37847;SDS011;23688;33.130;-117.188;2023-03-17T04:03:24;18.92;;;6.10;;
37847;SDS011;23688;33.130;-117.188;2023-03-17T04:05:52;33.08;;;7.75;;
37847;SDS011;23688;33.130;-117.188;2023-03-17T04:08:19;22.73;;;7.30;;
37847;SDS011;23688;33.130;-117.188;2023-03-17T04:10:45;20.88;;;7.68;;
37847;SDS011;23688;33.130;-117.188;2023-03-17T04:13:13;19.52;;;6.32;;
37847;SDS011;23688;33.130;-117.188;2023-03-17T04:15:39;26.40;;;6.47;;
37847;SDS011;23688;33.130;-117.188;2023-03-17T04:18:05;22.98;;;6.80;;
37847;SDS011;23688;33.130;-117.188;2023-03-17T04:20:32;23.98;;;7.78;;
37847;SDS011;23688;33.130;-117.188;2023-03-17T04:22:58;31.13;;;7.15;;
37847;SDS011;23688;33.130;-117.188;2023-03-17T04:25:24;21.85;;;6.68;;
37847;SDS011;23688;33.130;-117.188;2023-03-17T04:27:51;23.60;;;7.28;;
37847;SDS011;23688;33.130;-117.188;2023-03-17T04:30:17;23.73;;;7.10;;
37847;SDS011;23688;33.130;-117.188;2023-03-17T04:32:44;21.70;;;6.60;;
37847;SDS011;23688;33.130;-117.188;2023-03-17T04:35:14;22.00;;;6.55;;
37847;SDS011;23688;33.130;-117.188;2023-03-17T04:37:43;23.58;;;8.40;;
37847;SDS011;23688;33.130;-117.188;2023-03-17T04:40:10;29.23;;;8.50;;
37847;SDS011;23688;33.130;-117.188;2023-03-17T04:42:37;17.88;;;7.40;;
37847;SDS011;23688;33.130;-117.188;2023-03-17T04:45:05;30.08;;;8.30;;
37847;SDS011;23688;33.130;-117.188;2023-03-17T04:47:33;20.00;;;7.20;;
37847;SDS011;23688;33.130;-117.188;2023-03-17T04:50:00;19.17;;;7.47;;
37847;SDS011;23688;33.130;-117.188;2023-03-17T04:52:28;32.30;;;7.38;;
37847;SDS011;23688;33.130;-117.188;2023-03-17T04:54:55;24.55;;;7.78;;
37847;SDS011;23688;33.130;-117.188;2023-03-17T04:57:21;23.60;;;6.97;;
37847;SDS011;23688;33.130;-117.188;2023-03-17T04:59:49;28.02;;;8.13;;
37847;SDS011;23688;33.130;-117.188;2023-03-17T05:02:15;27.48;;;8.00;;
37847;SDS011;23688;33.130;-117.188;2023-03-17T05:04:44;22.60;;;8.20;;
37847;SDS011;23688;33.130;-117.188;2023-03-17T05:07:14;17.70;;;7.70;;
37847;SDS011;23688;33.130;-117.188;2023-03-17T05:09:40;25.05;;;7.47;;
37847;SDS011;23688;33.130;-117.188;2023-03-17T05:12:07;31.52;;;7.60;;
37847;SDS011;23688;33.130;-117.188;2023-03-17T05:14:35;25.90;;;7.35;;
37847;SDS011;23688;33.130;-117.188;2023-03-17T05:17:01;20.17;;;7.10;;
37847;SDS011;23688;33.130;-117.188;2023-03-17T05:19:28;30.77;;;7.13;;
37847;SDS011;23688;33.130;-117.188;2023-03-17T05:21:54;30.17;;;7.65;;
37847;SDS011;23688;33.130;-117.188;2023-03-17T05:24:21;27.23;;;7.47;;
37847;SDS011;23688;33.130;-117.188;2023-03-17T05:26:47;21.30;;;7.15;;
37847;SDS011;23688;33.130;-117.188;2023-03-17T05:29:14;25.00;;;7.40;;
37847;SDS011;23688;33.130;-117.188;2023-03-17T05:31:40;23.38;;;7.43;;
37847;SDS011;23688;33.130;-117.188;2023-03-17T05:34:07;31.75;;;7.90;;
37847;SDS011;23688;33.130;-117.188;2023-03-17T05:36:34;22.83;;;7.07;;
37847;SDS011;23688;33.130;-117.188;2023-03-17T05:39:01;25.00;;;7.40;;
37847;SDS011;23688;33.130;-117.188;2023-03-17T05:41:28;24.70;;;8.30;;
37847;SDS011;23688;33.130;-117.188;2023-03-17T05:43:54;26.55;;;7.80;;
37847;SDS011;23688;33.130;-117.188;2023-03-17T05:46:21;21.10;;;6.82;;
37847;SDS011;23688;33.130;-117.188;2023-03-17T05:48:47;24.88;;;7.80;;
37847;SDS011;23688;33.130;-117.188;2023-03-17T05:51:13;22.98;;;7.43;;
37847;SDS011;23688;33.130;-117.188;2023-03-17T05:53:40;27.90;;;9.32;;
37847;SDS011;23688;33.130;-117.188;2023-03-17T05:56:08;36.50;;;9.02;;
37847;SDS011;23688;33.130;-117.188;2023-03-17T05:58:35;27.98;;;7.68;;
37847;SDS011;23688;33.130;-117.188;2023-03-17T06:01:02;22.52;;;7.55;;
37847;SDS011;23688;33.130;-117.188;2023-03-17T06:03:30;37.10;;;9.20;;
37847;SDS011;23688;33.130;-117.188;2023-03-17T06:05:57;26.17;;;8.98;;
37847;SDS011;23688;33.130;-117.188;2023-03-17T06:08:23;35.40;;;9.48;;
37847;SDS011;23688;33.130;-117.188;2023-03-17T06:10:50;30.95;;;10.23;;
37847;SDS011;23688;33.130;-117.188;2023-03-17T06:13:16;25.27;;;9.02;;
37847;SDS011;23688;33.130;-117.188;2023-03-17T06:15:43;36.42;;;9.27;;
37847;SDS011;23688;33.130;-117.188;2023-03-17T06:18:11;24.00;;;9.77;;
37847;SDS011;23688;33.130;-117.188;2023-03-17T06:20:39;22.55;;;9.02;;
37847;SDS011;23688;33.130;-117.188;2023-03-17T06:23:05;28.42;;;8.45;;
37847;SDS011;23688;33.130;-117.188;2023-03-17T06:25:32;21.48;;;7.75;;
37847;SDS011;23688;33.130;-117.188;2023-03-17T06:28:00;14.07;;;7.55;;
37847;SDS011;23688;33.130;-117.188;2023-03-17T06:30:27;15.13;;;7.43;;
37847;SDS011;23688;33.130;-117.188;2023-03-17T06:32:55;19.70;;;6.55;;
37847;SDS011;23688;33.130;-117.188;2023-03-17T06:35:22;28.52;;;9.18;;
37847;SDS011;23688;33.130;-117.188;2023-03-17T06:37:48;24.30;;;7.97;;
37847;SDS011;23688;33.130;-117.188;2023-03-17T06:40:15;22.70;;;8.02;;
37847;SDS011;23688;33.130;-117.188;2023-03-17T06:42:41;22.20;;;7.65;;
37847;SDS011;23688;33.130;-117.188;2023-03-17T06:45:08;23.73;;;8.52;;
37847;SDS011;23688;33.130;-117.188;2023-03-17T06:47:34;26.80;;;9.80;;
37847;SDS011;23688;33.130;-117.188;2023-03-17T06:50:04;26.50;;;7.75;;
37847;SDS011;23688;33.130;-117.188;2023-03-17T06:52:34;19.17;;;7.35;;
37847;SDS011;23688;33.130;-117.188;2023-03-17T06:55:02;22.67;;;7.50;;
37847;SDS011;23688;33.130;-117.188;2023-03-17T06:57:30;31.20;;;7.22;;
37847;SDS011;23688;33.130;-117.188;2023-03-17T06:59:57;24.70;;;8.25;;
37847;SDS011;23688;33.130;-117.188;2023-03-17T07:02:25;18.50;;;7.00;;
37847;SDS011;23688;33.130;-117.188;2023-03-17T07:04:52;19.02;;;8.40;;
37847;SDS011;23688;33.130;-117.188;2023-03-17T07:07:18;31.35;;;9.40;;
37847;SDS011;23688;33.130;-117.188;2023-03-17T07:09:45;26.80;;;8.70;;
37847;SDS011;23688;33.130;-117.188;2023-03-17T07:12:12;23.08;;;8.52;;
37847;SDS011;23688;33.130;-117.188;2023-03-17T07:14:38;26.50;;;9.35;;
37847;SDS011;23688;33.130;-117.188;2023-03-17T07:17:06;33.60;;;10.75;;
37847;SDS011;23688;33.130;-117.188;2023-03-17T07:19:32;23.95;;;10.05;;
37847;SDS011;23688;33.130;-117.188;2023-03-17T07:21:59;33.85;;;10.43;;
37847;SDS011;23688;33.130;-117.188;2023-03-17T07:24:30;21.00;;;9.50;;
37847;SDS011;23688;33.130;-117.188;2023-03-17T07:26:57;30.38;;;9.60;;
37847;SDS011;23688;33.130;-117.188;2023-03-17T07:29:24;38.95;;;9.85;;
37847;SDS011;23688;33.130;-117.188;2023-03-17T07:31:51;19.75;;;8.95;;
37847;SDS011;23688;33.130;-117.188;2023-03-17T07:34:18;22.15;;;7.85;;
37847;SDS011;23688;33.130;-117.188;2023-03-17T07:36:44;31.85;;;9.48;;
37847;SDS011;23688;33.130;-117.188;2023-03-17T07:39:10;26.73;;;8.70;;
37847;SDS011;23688;33.130;-117.188;2023-03-17T07:41:37;23.40;;;8.57;;
37847;SDS011;23688;33.130;-117.188;2023-03-17T07:44:03;23.75;;;8.35;;
37847;SDS011;23688;33.130;-117.188;2023-03-17T07:46:30;27.27;;;8.50;;
37847;SDS011;23688;33.130;-117.188;2023-03-17T07:48:56;24.33;;;8.68;;
37847;SDS011;23688;33.130;-117.188;2023-03-17T07:51:24;26.55;;;9.02;;
37847;SDS011;23688;33.130;-117.188;2023-03-17T07:53:52;28.52;;;10.02;;
37847;SDS011;23688;33.130;-117.188;2023-03-17T07:56:28;16.95;;;8.27;;
37847;SDS011;23688;33.130;-117.188;2023-03-17T07:58:56;33.75;;;9.55;;
37847;SDS011;23688;33.130;-117.188;2023-03-17T08:01:24;31.83;;;8.82;;
37847;SDS011;23688;33.130;-117.188;2023-03-17T08:03:52;28.45;;;8.82;;
37847;SDS011;23688;33.130;-117.188;2023-03-17T08:06:22;25.92;;;10.40;;
37847;SDS011;23688;33.130;-117.188;2023-03-17T08:08:53;41.30;;;9.57;;
37847;SDS011;23688;33.130;-117.188;2023-03-17T08:11:20;21.98;;;8.73;;
37847;SDS011;23688;33.130;-117.188;2023-03-17T08:13:48;22.77;;;9.82;;
37847;SDS011;23688;33.130;-117.188;2023-03-17T08:16:15;30.40;;;9.27;;
37847;SDS011;23688;33.130;-117.188;2023-03-17T08:18:41;33.78;;;9.80;;
37847;SDS011;23688;33.130;-117.188;2023-03-17T08:21:08;29.65;;;9.40;;
37847;SDS011;23688;33.130;-117.188;2023-03-17T08:23:35;26.80;;;9.02;;
37847;SDS011;23688;33.130;-117.188;2023-03-17T08:26:02;29.33;;;10.48;;
37847;SDS011;23688;33.130;-117.188;2023-03-17T08:28:29;23.65;;;8.55;;
37847;SDS011;23688;33.130;-117.188;2023-03-17T08:31:09;28.90;;;11.10;;
37847;SDS011;23688;33.130;-117.188;2023-03-17T08:33:41;29.08;;;9.32;;
37847;SDS011;23688;33.130;-117.188;2023-03-17T08:36:10;21.65;;;9.70;;
37847;SDS011;23688;33.130;-117.188;2023-03-17T08:38:37;24.20;;;10.63;;
37847;SDS011;23688;33.130;-117.188;2023-03-17T08:41:09;23.67;;;10.45;;
37847;SDS011;23688;33.130;-117.188;2023-03-17T08:43:37;24.48;;;10.52;;
37847;SDS011;23688;33.130;-117.188;2023-03-17T08:46:06;27.52;;;9.88;;
37847;SDS011;23688;33.130;-117.188;2023-03-17T08:48:37;28.08;;;10.60;;
37847;SDS011;23688;33.130;-117.188;2023-03-17T08:51:04;36.17;;;10.93;;
37847;SDS011;23688;33.130;-117.188;2023-03-17T08:53:31;26.02;;;11.35;;
37847;SDS011;23688;33.130;-117.188;2023-03-17T08:55:59;27.77;;;9.77;;
37847;SDS011;23688;33.130;-117.188;2023-03-17T08:58:31;31.08;;;10.82;;
37847;SDS011;23688;33.130;-117.188;2023-03-17T09:01:01;27.60;;;11.20;;
37847;SDS011;23688;33.130;-117.188;2023-03-17T09:03:29;29.75;;;11.68;;
37847;SDS011;23688;33.130;-117.188;2023-03-17T09:05:57;36.08;;;12.05;;
37847;SDS011;23688;33.130;-117.188;2023-03-17T09:08:24;29.08;;;8.50;;
37847;SDS011;23688;33.130;-117.188;2023-03-17T09:10:52;33.93;;;10.20;;
37847;SDS011;23688;33.130;-117.188;2023-03-17T09:13:19;24.60;;;10.10;;
37847;SDS011;23688;33.130;-117.188;2023-03-17T09:15:49;35.97;;;11.43;;
37847;SDS011;23688;33.130;-117.188;2023-03-17T09:18:15;19.95;;;9.13;;
37847;SDS011;23688;33.130;-117.188;2023-03-17T09:20:41;31.55;;;9.88;;
37847;SDS011;23688;33.130;-117.188;2023-03-17T09:23:08;23.63;;;10.52;;
37847;SDS011;23688;33.130;-117.188;2023-03-17T09:25:36;31.90;;;11.80;;
37847;SDS011;23688;33.130;-117.188;2023-03-17T09:28:04;31.10;;;9.40;;
37847;SDS011;23688;33.130;-117.188;2023-03-17T09:30:33;27.60;;;11.05;;
37847;SDS011;23688;33.130;-117.188;2023-03-17T09:33:00;24.85;;;9.07;;
37847;SDS011;23688;33.130;-117.188;2023-03-17T09:35:29;41.63;;;11.40;;
37847;SDS011;23688;33.130;-117.188;2023-03-17T09:37:56;30.80;;;11.25;;
37847;SDS011;23688;33.130;-117.188;2023-03-17T09:40:26;27.35;;;9.70;;
37847;SDS011;23688;33.130;-117.188;2023-03-17T09:43:41;24.77;;;8.63;;
37847;SDS011;23688;33.130;-117.188;2023-03-17T09:48:57;32.42;;;10.25;;
37847;SDS011;23688;33.130;-117.188;2023-03-17T09:51:28;30.27;;;10.35;;
37847;SDS011;23688;33.130;-117.188;2023-03-17T09:54:17;38.78;;;10.82;;
37847;SDS011;23688;33.130;-117.188;2023-03-17T09:56:55;30.05;;;9.32;;
37847;SDS011;23688;33.130;-117.188;2023-03-17T09:59:29;30.65;;;9.77;;
37847;SDS011;23688;33.130;-117.188;2023-03-17T10:01:59;18.10;;;9.23;;
37847;SDS011;23688;33.130;-117.188;2023-03-17T10:04:26;33.33;;;10.55;;
37847;SDS011;23688;33.130;-117.188;2023-03-17T10:06:58;26.60;;;10.23;;
37847;SDS011;23688;33.130;-117.188;2023-03-17T10:15:17;32.67;;;11.32;;
37847;SDS011;23688;33.130;-117.188;2023-03-17T10:17:45;23.13;;;7.95;;
37847;SDS011;23688;33.130;-117.188;2023-03-17T10:20:25;24.05;;;8.45;;
37847;SDS011;23688;33.130;-117.188;2023-03-17T10:23:02;21.63;;;9.38;;
37847;SDS011;23688;33.130;-117.188;2023-03-17T10:25:33;25.30;;;9.17;;
37847;SDS011;23688;33.130;-117.188;2023-03-17T10:28:02;24.67;;;9.30;;
37847;SDS011;23688;33.130;-117.188;2023-03-17T10:30:36;27.55;;;10.00;;
37847;SDS011;23688;33.130;-117.188;2023-03-17T10:33:04;27.92;;;10.18;;
37847;SDS011;23688;33.130;-117.188;2023-03-17T10:35:34;21.33;;;9.90;;
37847;SDS011;23688;33.130;-117.188;2023-03-17T10:38:22;25.02;;;10.15;;
37847;SDS011;23688;33.130;-117.188;2023-03-17T10:40:59;25.45;;;10.18;;
37847;SDS011;23688;33.130;-117.188;2023-03-17T10:43:34;22.60;;;9.45;;
37847;SDS011;23688;33.130;-117.188;2023-03-17T10:46:16;27.10;;;10.00;;
37847;SDS011;23688;33.130;-117.188;2023-03-17T10:48:48;37.00;;;11.27;;
37847;SDS011;23688;33.130;-117.188;2023-03-17T10:51:21;25.08;;;10.40;;
37847;SDS011;23688;33.130;-117.188;2023-03-17T10:53:56;24.33;;;10.45;;
37847;SDS011;23688;33.130;-117.188;2023-03-17T10:56:26;32.35;;;11.23;;
37847;SDS011;23688;33.130;-117.188;2023-03-17T10:58:57;28.80;;;10.57;;
37847;SDS011;23688;33.130;-117.188;2023-03-17T11:01:39;25.40;;;10.27;;
37847;SDS011;23688;33.130;-117.188;2023-03-17T11:04:19;28.40;;;10.63;;
37847;SDS011;23688;33.130;-117.188;2023-03-17T11:06:58;31.05;;;11.45;;
37847;SDS011;23688;33.130;-117.188;2023-03-17T11:09:34;28.55;;;10.32;;
37847;SDS011;23688;33.130;-117.188;2023-03-17T11:12:21;25.15;;;10.27;;
37847;SDS011;23688;33.130;-117.188;2023-03-17T11:14:53;25.88;;;9.93;;
37847;SDS011;23688;33.130;-117.188;2023-03-17T11:23:15;33.78;;;11.30;;
37847;SDS011;23688;33.130;-117.188;2023-03-17T11:26:00;29.23;;;11.75;;
37847;SDS011;23688;33.130;-117.188;2023-03-17T11:28:42;31.02;;;10.85;;
37847;SDS011;23688;33.130;-117.188;2023-03-17T11:31:22;24.38;;;10.27;;
37847;SDS011;23688;33.130;-117.188;2023-03-17T11:39:25;21.02;;;10.80;;
37847;SDS011;23688;33.130;-117.188;2023-03-17T11:42:13;31.75;;;10.95;;
37847;SDS011;23688;33.130;-117.188;2023-03-17T11:45:01;23.40;;;11.18;;
37847;SDS011;23688;33.130;-117.188;2023-03-17T11:47:57;29.27;;;11.20;;
37847;SDS011;23688;33.130;-117.188;2023-03-17T11:56:29;25.52;;;9.60;;
37847;SDS011;23688;33.130;-117.188;2023-03-17T12:05:08;23.77;;;10.13;;
37847;SDS011;23688;33.130;-117.188;2023-03-17T12:07:48;24.70;;;10.70;;
37847;SDS011;23688;33.130;-117.188;2023-03-17T12:10:32;33.25;;;11.43;;
37847;SDS011;23688;33.130;-117.188;2023-03-17T12:13:07;39.88;;;12.57;;
37847;SDS011;23688;33.130;-117.188;2023-03-17T12:15:49;24.65;;;11.13;;
37847;SDS011;23688;33.130;-117.188;2023-03-17T12:23:47;28.27;;;11.02;;
37847;SDS011;23688;33.130;-117.188;2023-03-17T12:26:15;26.05;;;12.18;;
37847;SDS011;23688;33.130;-117.188;2023-03-17T12:28:50;26.42;;;12.23;;
37847;SDS011;23688;33.130;-117.188;2023-03-17T12:36:50;27.80;;;11.85;;
37847;SDS011;23688;33.130;-117.188;2023-03-17T12:39:18;23.92;;;11.32;;
37847;SDS011;23688;33.130;-117.188;2023-03-17T12:44:48;25.48;;;12.80;;
37847;SDS011;23688;33.130;-117.188;2023-03-17T12:53:37;25.80;;;10.43;;
37847;SDS011;23688;33.130;-117.188;2023-03-17T12:56:20;16.60;;;10.00;;
37847;SDS011;23688;33.130;-117.188;2023-03-17T12:58:48;22.23;;;11.02;;
37847;SDS011;23688;33.130;-117.188;2023-03-17T13:18:44;33.15;;;12.30;;
37847;SDS011;23688;33.130;-117.188;2023-03-17T13:20:40;26.13;;;12.50;;
37847;SDS011;23688;33.130;-117.188;2023-03-17T13:23:33;37.00;;;11.50;;
37847;SDS011;23688;33.130;-117.188;2023-03-17T13:26:23;27.25;;;10.65;;
37847;SDS011;23688;33.130;-117.188;2023-03-17T13:34:51;29.23;;;11.15;;
37847;SDS011;23688;33.130;-117.188;2023-03-17T13:37:31;26.83;;;13.15;;
37847;SDS011;23688;33.130;-117.188;2023-03-17T13:40:28;29.67;;;12.02;;
37847;SDS011;23688;33.130;-117.188;2023-03-17T13:45:43;25.25;;;11.05;;
37847;SDS011;23688;33.130;-117.188;2023-03-17T13:48:34;25.65;;;12.38;;
37847;SDS011;23688;33.130;-117.188;2023-03-17T13:53:41;28.95;;;12.75;;
37847;SDS011;23688;33.130;-117.188;2023-03-17T14:01:27;26.25;;;12.05;;
37847;SDS011;23688;33.130;-117.188;2023-03-17T14:04:01;30.08;;;12.75;;
37847;SDS011;23688;33.130;-117.188;2023-03-17T14:06:29;29.52;;;12.57;;
37847;SDS011;23688;33.130;-117.188;2023-03-17T14:09:02;32.88;;;13.60;;
37847;SDS011;23688;33.130;-117.188;2023-03-17T14:11:39;33.45;;;13.25;;
37847;SDS011;23688;33.130;-117.188;2023-03-17T14:16:46;38.28;;;12.35;;
37847;SDS011;23688;33.130;-117.188;2023-03-17T14:19:23;21.97;;;11.17;;
37847;SDS011;23688;33.130;-117.188;2023-03-17T14:21:52;23.33;;;11.00;;
37847;SDS011;23688;33.130;-117.188;2023-03-17T14:24:23;23.80;;;11.73;;
37847;SDS011;23688;33.130;-117.188;2023-03-17T14:26:53;23.27;;;10.38;;
37847;SDS011;23688;33.130;-117.188;2023-03-17T14:29:22;22.88;;;10.40;;
37847;SDS011;23688;33.130;-117.188;2023-03-17T14:32:11;24.92;;;11.63;;
37847;SDS011;23688;33.130;-117.188;2023-03-17T14:34:47;27.08;;;12.07;;
37847;SDS011;23688;33.130;-117.188;2023-03-17T14:37:19;29.27;;;12.55;;
37847;SDS011;23688;33.130;-117.188;2023-03-17T14:39:47;25.25;;;10.80;;
37847;SDS011;23688;33.130;-117.188;2023-03-17T14:42:17;31.92;;;10.93;;
37847;SDS011;23688;33.130;-117.188;2023-03-17T14:44:57;21.42;;;9.70;;
37847;SDS011;23688;33.130;-117.188;2023-03-17T14:47:43;23.65;;;9.35;;
37847;SDS011;23688;33.130;-117.188;2023-03-17T14:50:15;39.30;;;10.63;;
37847;SDS011;23688;33.130;-117.188;2023-03-17T14:52:52;24.73;;;10.20;;
37847;SDS011;23688;33.130;-117.188;2023-03-17T14:55:19;31.88;;;10.07;;
37847;SDS011;23688;33.130;-117.188;2023-03-17T14:57:47;20.92;;;9.00;;
37847;SDS011;23688;33.130;-117.188;2023-03-17T15:00:35;20.23;;;10.43;;
37847;SDS011;23688;33.130;-117.188;2023-03-17T15:03:21;21.35;;;9.57;;
37847;SDS011;23688;33.130;-117.188;2023-03-17T15:05:50;30.25;;;9.75;;
37847;SDS011;23688;33.130;-117.188;2023-03-17T15:08:48;30.17;;;10.20;;
37847;SDS011;23688;33.130;-117.188;2023-03-17T15:11:18;25.00;;;9.70;;
37847;SDS011;23688;33.130;-117.188;2023-03-17T15:13:52;18.08;;;9.75;;
37847;SDS011;23688;33.130;-117.188;2023-03-17T15:16:22;21.80;;;9.95;;
37847;SDS011;23688;33.130;-117.188;2023-03-17T15:21:54;23.17;;;9.88;;
37847;SDS011;23688;33.130;-117.188;2023-03-17T15:27:02;26.75;;;9.75;;
37847;SDS011;23688;33.130;-117.188;2023-03-17T15:29:30;22.52;;;9.15;;
37847;SDS011;23688;33.130;-117.188;2023-03-17T15:34:49;25.52;;;10.35;;
37847;SDS011;23688;33.130;-117.188;2023-03-17T15:40:04;20.73;;;9.18;;
37847;SDS011;23688;33.130;-117.188;2023-03-17T15:42:31;18.75;;;9.60;;
37847;SDS011;23688;33.130;-117.188;2023-03-17T15:45:00;19.52;;;10.45;;
37847;SDS011;23688;33.130;-117.188;2023-03-17T15:47:28;24.77;;;9.87;;
37847;SDS011;23688;33.130;-117.188;2023-03-17T15:49:58;22.88;;;10.63;;
37847;SDS011;23688;33.130;-117.188;2023-03-17T15:52:28;25.85;;;9.45;;
37847;SDS011;23688;33.130;-117.188;2023-03-17T15:54:56;22.55;;;10.57;;
37847;SDS011;23688;33.130;-117.188;2023-03-17T15:57:24;21.45;;;10.75;;
37847;SDS011;23688;33.130;-117.188;2023-03-17T15:59:51;27.13;;;11.25;;
37847;SDS011;23688;33.130;-117.188;2023-03-17T16:04:50;20.67;;;7.55;;